createdAt,value
2023-03-12T00:00:52.864Z,99760.63
2023-03-12T00:03:35.131Z,99769.78
2023-03-12T00:06:10.592Z,99769.69
2023-03-12T00:08:39.452Z,99770.13
2023-03-12T00:11:11.438Z,99773.50
2023-03-12T00:13:39.574Z,99776.34
2023-03-12T00:16:11.885Z,99779.19
2023-03-12T00:18:39.829Z,99781.66
2023-03-12T00:21:08.260Z,99783.53
2023-03-12T00:23:36.218Z,99782.25
2023-03-12T00:26:05.429Z,99785.34
2023-03-12T00:28:33.129Z,99787.03
2023-03-12T00:31:01.545Z,99803.47
2023-03-12T00:33:29.589Z,99812.31
2023-03-12T00:36:00.325Z,99815.22
2023-03-12T00:38:27.958Z,99819.16
2023-03-12T00:40:55.929Z,99814.13
2023-03-12T00:43:23.509Z,99817.84
2023-03-12T00:45:51.448Z,99814.06
2023-03-12T00:48:19.157Z,99817.06
2023-03-12T00:50:47.346Z,99823.91
2023-03-12T00:53:14.939Z,99827.78
2023-03-12T00:55:42.851Z,99826.41
2023-03-12T00:58:10.557Z,99838.69
2023-03-12T01:00:38.524Z,99834.75
2023-03-12T01:03:06.322Z,99828.00
2023-03-12T01:05:37.916Z,99835.88
2023-03-12T01:08:05.787Z,99833.69
2023-03-12T01:10:33.842Z,99836.91
2023-03-12T01:13:01.595Z,99838.31
2023-03-12T01:15:31.602Z,99841.91
2023-03-12T01:17:59.271Z,99841.47
2023-03-12T01:20:27.494Z,99843.19
2023-03-12T01:22:55.205Z,99843.84
2023-03-12T01:25:23.137Z,99853.16
2023-03-12T01:27:50.775Z,99867.94
2023-03-12T01:30:18.761Z,99870.91
2023-03-12T01:32:46.399Z,99879.75
2023-03-12T01:35:14.497Z,99878.19
2023-03-12T01:37:42.186Z,99877.56
2023-03-12T01:40:15.439Z,99888.03
2023-03-12T01:42:43.193Z,99885.75
2023-03-12T01:45:29.767Z,99889.69
2023-03-12T01:47:57.414Z,99892.38
2023-03-12T01:50:25.572Z,99892.22
2023-03-12T01:52:53.392Z,99898.53
2023-03-12T01:55:21.561Z,99902.41
2023-03-12T01:57:50.452Z,99898.63
2023-03-12T02:00:20.581Z,99911.94
2023-03-12T02:02:49.970Z,99903.81
2023-03-12T02:05:43.792Z,99903.56
2023-03-12T02:08:12.547Z,99904.66
2023-03-12T02:10:40.791Z,99907.44
2023-03-12T02:13:08.469Z,99919.81
2023-03-12T02:15:36.719Z,99928.38
2023-03-12T02:18:05.372Z,99920.22
2023-03-12T02:20:52.967Z,99929.41
2023-03-12T02:23:31.324Z,99938.22
2023-03-12T02:26:01.661Z,99938.97
2023-03-12T02:28:30.119Z,99948.47
2023-03-12T02:30:59.642Z,99947.59
2023-03-12T02:33:27.781Z,99943.94
2023-03-12T02:35:55.976Z,99962.03
2023-03-12T02:38:33.613Z,99956.78
2023-03-12T02:41:05.104Z,99964.69
2023-03-12T02:43:32.826Z,99957.03
2023-03-12T02:46:00.808Z,99966.03
2023-03-12T02:48:28.655Z,99965.72
2023-03-12T02:50:56.563Z,99976.09
2023-03-12T02:53:24.115Z,99976.09
2023-03-12T02:55:51.983Z,99989.28
2023-03-12T02:58:19.813Z,99978.38
2023-03-12T03:00:49.551Z,99987.84
2023-03-12T03:03:17.294Z,99986.97
2023-03-12T03:05:45.486Z,99988.91
2023-03-12T03:08:13.164Z,99997.47
2023-03-12T03:10:41.193Z,99993.19
2023-03-12T03:13:08.944Z,100009.13
2023-03-12T03:15:39.158Z,100007.66
2023-03-12T03:18:07.180Z,100018.03
2023-03-12T03:20:35.227Z,100018.22
2023-03-12T03:23:02.967Z,100030.56
2023-03-12T03:25:30.888Z,100036.22
2023-03-12T03:27:58.667Z,100040.22
2023-03-12T03:30:26.561Z,100040.97
2023-03-12T03:32:55.321Z,100040.81
2023-03-12T03:35:24.481Z,100038.28
2023-03-12T03:37:52.543Z,100037.81
2023-03-12T03:40:20.464Z,100043.41
2023-03-12T03:42:48.516Z,100051.31
2023-03-12T03:45:16.432Z,100046.16
2023-03-12T03:47:45.095Z,100046.50
2023-03-12T03:50:13.618Z,100056.53
2023-03-12T03:52:41.180Z,100063.44
2023-03-12T03:55:09.962Z,100067.06
2023-03-12T03:57:37.585Z,100078.09
2023-03-12T04:00:10.066Z,100082.69
2023-03-12T04:02:45.704Z,100087.50
2023-03-12T04:05:19.709Z,100089.72
2023-03-12T04:07:49.025Z,100100.53
2023-03-12T04:10:22.046Z,100101.09
2023-03-12T04:12:49.862Z,100099.44
2023-03-12T04:15:18.134Z,100104.16
2023-03-12T04:17:46.309Z,100107.44
2023-03-12T04:20:14.581Z,100119.00
2023-03-12T04:22:43.054Z,100118.53
2023-03-12T04:25:12.246Z,100116.84
2023-03-12T04:27:40.220Z,100108.94
2023-03-12T04:30:08.911Z,100116.53
2023-03-12T04:32:38.975Z,100124.56
2023-03-12T04:35:07.275Z,100132.25
2023-03-12T04:37:35.199Z,100129.69
2023-03-12T04:40:06.829Z,100137.50
2023-03-12T04:42:35.567Z,100138.50
2023-03-12T04:45:05.567Z,100146.09
2023-03-12T04:47:34.459Z,100157.06
2023-03-12T04:50:02.466Z,100150.34
2023-03-12T04:52:31.416Z,100164.41
2023-03-12T04:55:02.328Z,100165.19
2023-03-12T04:57:30.463Z,100165.41
2023-03-12T04:59:58.738Z,100171.34
2023-03-12T05:02:26.449Z,100181.25
2023-03-12T05:04:56.367Z,100173.22
2023-03-12T05:07:24.660Z,100192.84
2023-03-12T05:09:52.773Z,100188.97
2023-03-12T05:12:20.301Z,100195.22
2023-03-12T05:14:48.404Z,100199.00
2023-03-12T05:17:16.163Z,100208.56
2023-03-12T05:19:44.001Z,100204.16
2023-03-12T05:22:11.609Z,100215.06
2023-03-12T05:24:39.596Z,100218.69
2023-03-12T05:27:08.727Z,100223.75
2023-03-12T05:29:36.944Z,100218.06
2023-03-12T05:32:05.040Z,100226.78
2023-03-12T05:34:33.739Z,100242.28
2023-03-12T05:37:02.161Z,100243.50
2023-03-12T05:39:38.439Z,100239.28
2023-03-12T05:42:06.629Z,100235.59
2023-03-12T05:44:35.689Z,100236.72
2023-03-12T05:47:03.799Z,100234.25
2023-03-12T05:49:31.756Z,100237.50
2023-03-12T05:51:59.719Z,100243.72
2023-03-12T05:54:27.650Z,100253.13
2023-03-12T05:56:56.458Z,100260.00
2023-03-12T05:59:26.235Z,100255.88
2023-03-12T06:01:54.962Z,100264.38
2023-03-12T06:04:23.030Z,100267.75
2023-03-12T06:06:52.332Z,100277.03
2023-03-12T06:09:20.141Z,100273.66
2023-03-12T06:11:47.697Z,100276.00
2023-03-12T06:14:15.652Z,100284.53
2023-03-12T06:16:43.305Z,100283.09
2023-03-12T06:19:14.554Z,100291.59
2023-03-12T06:21:44.985Z,100288.44
2023-03-12T06:24:13.528Z,100300.63
2023-03-12T06:26:48.431Z,100306.66
2023-03-12T06:29:16.300Z,100308.31
2023-03-12T06:31:44.273Z,100306.25
2023-03-12T06:34:12.220Z,100317.44
2023-03-12T06:36:39.921Z,100310.09
2023-03-12T06:39:09.990Z,100311.97
2023-03-12T06:41:38.224Z,100316.97
2023-03-12T06:44:06.547Z,100328.19
2023-03-12T06:46:34.708Z,100339.38
2023-03-12T06:49:02.800Z,100333.34
2023-03-12T06:51:30.470Z,100333.41
2023-03-12T06:54:01.181Z,100328.44
2023-03-12T06:56:29.896Z,100344.84
2023-03-12T06:58:57.773Z,100342.75
2023-03-12T07:01:25.547Z,100343.09
2023-03-12T07:03:53.795Z,100348.34
2023-03-12T07:06:22.485Z,100350.34
2023-03-12T07:08:50.668Z,100366.44
2023-03-12T07:11:18.707Z,100357.72
2023-03-12T07:13:46.830Z,100353.03
2023-03-12T07:16:15.015Z,100348.00
2023-03-12T07:18:43.303Z,100342.88
2023-03-12T07:21:10.947Z,100350.59
2023-03-12T07:23:39.102Z,100358.25
2023-03-12T07:26:07.062Z,100365.56
2023-03-12T07:28:34.965Z,100369.09
2023-03-12T07:31:03.764Z,100365.59
2023-03-12T07:33:32.398Z,100376.47
2023-03-12T07:36:00.674Z,100380.88
2023-03-12T07:38:28.872Z,100392.22
2023-03-12T07:40:57.444Z,100396.22
2023-03-12T07:43:25.735Z,100399.94
2023-03-12T07:45:55.488Z,100402.06
2023-03-12T07:48:23.712Z,100404.97
2023-03-12T07:50:52.184Z,100413.00
2023-03-12T07:53:20.565Z,100406.97
2023-03-12T07:55:48.579Z,100413.06
2023-03-12T07:58:17.377Z,100414.47
2023-03-12T08:00:45.473Z,100421.75
2023-03-12T08:03:14.171Z,100418.44
2023-03-12T08:05:41.999Z,100421.97
2023-03-12T08:08:10.262Z,100416.63
2023-03-12T08:10:38.095Z,100422.81
2023-03-12T08:13:06.674Z,100424.81
2023-03-12T08:15:34.362Z,100423.63
2023-03-12T08:18:02.325Z,100426.97
2023-03-12T08:20:30.522Z,100424.75
2023-03-12T08:22:58.403Z,100424.13
2023-03-12T08:25:26.919Z,100430.28
2023-03-12T08:27:55.554Z,100431.13
2023-03-12T08:30:23.061Z,100437.66
2023-03-12T08:32:51.404Z,100449.81
2023-03-12T08:35:19.365Z,100451.19
2023-03-12T08:37:47.380Z,100452.81
2023-03-12T08:40:16.839Z,100457.19
2023-03-12T08:42:46.091Z,100457.44
2023-03-12T08:45:14.522Z,100461.59
2023-03-12T08:47:43.672Z,100473.66
2023-03-12T08:50:12.554Z,100471.31
2023-03-12T08:52:40.804Z,100466.22
2023-03-12T08:55:08.676Z,100461.13
2023-03-12T08:57:36.807Z,100472.03
2023-03-12T09:00:11.804Z,100465.38
2023-03-12T09:02:39.799Z,100477.47
2023-03-12T09:05:07.738Z,100472.50
2023-03-12T09:07:36.016Z,100477.03
2023-03-12T09:10:04.046Z,100476.53
2023-03-12T09:12:32.308Z,100479.53
2023-03-12T09:15:04.632Z,100483.28
2023-03-12T09:17:33.011Z,100473.06
2023-03-12T09:20:01.055Z,100475.53
2023-03-12T09:22:30.491Z,100480.47
2023-03-12T09:24:58.289Z,100483.50
2023-03-12T09:27:26.220Z,100483.88
2023-03-12T09:30:00.194Z,100498.94
2023-03-12T09:32:29.454Z,100499.47
2023-03-12T09:34:57.090Z,100508.63
2023-03-12T09:37:25.231Z,100508.41
2023-03-12T09:39:53.441Z,100520.19
2023-03-12T09:42:36.314Z,100525.69
2023-03-12T09:45:05.968Z,100522.81
2023-03-12T09:47:43.751Z,100520.13
2023-03-12T09:50:21.756Z,100522.16
2023-03-12T09:53:01.668Z,100520.81
2023-03-12T09:55:35.552Z,100521.38
2023-03-12T09:58:03.891Z,100520.78
2023-03-12T10:00:33.031Z,100519.31
2023-03-12T10:03:13.112Z,100543.44
2023-03-12T10:05:40.674Z,100519.84
2023-03-12T10:08:28.096Z,100532.25
2023-03-12T10:11:01.583Z,100528.91
2023-03-12T10:13:29.422Z,100524.84
2023-03-12T10:16:03.732Z,100517.63
2023-03-12T10:18:54.632Z,100521.75
2023-03-12T10:21:22.330Z,100517.88
2023-03-12T10:23:59.064Z,100518.78
2023-03-12T10:26:32.266Z,100529.13
2023-03-12T10:29:18.403Z,100528.16
2023-03-12T10:32:12.309Z,100530.97
2023-03-12T10:34:46.442Z,100527.19
2023-03-12T10:37:21.283Z,100525.66
2023-03-12T10:39:49.411Z,100533.16
2023-03-12T10:42:21.533Z,100521.41
2023-03-12T10:44:52.301Z,100520.53
2023-03-12T10:47:29.060Z,100522.53
2023-03-12T10:50:11.614Z,100526.34
2023-03-12T10:52:39.141Z,100540.69
2023-03-12T10:55:16.342Z,100528.91
2023-03-12T10:57:43.822Z,100526.34
2023-03-12T11:00:17.990Z,100534.28
2023-03-12T11:02:46.490Z,100528.38
2023-03-12T11:05:20.710Z,100531.47
2023-03-12T11:07:48.642Z,100530.38
2023-03-12T11:10:21.200Z,100532.09
2023-03-12T11:13:18.001Z,100537.53
2023-03-12T11:15:46.015Z,100545.66
2023-03-12T11:18:25.609Z,100535.03
2023-03-12T11:20:58.330Z,100548.72
2023-03-12T11:23:31.187Z,100543.06
2023-03-12T11:26:01.910Z,100550.41
2023-03-12T11:28:40.799Z,100544.22
2023-03-12T11:31:11.499Z,100542.81
2023-03-12T11:33:39.234Z,100538.97
2023-03-12T11:36:18.782Z,100539.50
2023-03-12T11:38:55.721Z,100537.16
2023-03-12T11:41:27.929Z,100533.03
2023-03-12T11:44:14.141Z,100534.34
2023-03-12T11:46:54.187Z,100533.97
2023-03-12T11:49:34.176Z,100542.22
2023-03-12T11:52:02.218Z,100536.97
2023-03-12T11:54:38.694Z,100547.31
2023-03-12T11:57:09.644Z,100540.09
2023-03-12T11:59:49.273Z,100545.06
2023-03-12T12:02:20.593Z,100548.34
2023-03-12T12:05:07.793Z,100548.09
2023-03-12T12:07:52.662Z,100545.72
2023-03-12T12:10:38.742Z,100549.81
2023-03-12T12:13:11.156Z,100540.47
2023-03-12T12:15:44.444Z,100545.41
2023-03-12T12:18:15.494Z,100538.38
2023-03-12T12:20:52.643Z,100528.03
2023-03-12T12:23:23.512Z,100523.59
2023-03-12T12:25:53.882Z,100529.91
2023-03-12T12:28:28.154Z,100529.19
2023-03-12T12:30:55.862Z,100528.41
2023-03-12T12:33:35.628Z,100526.06
2023-03-12T12:36:03.809Z,100531.22
2023-03-12T12:38:34.572Z,100530.00
2023-03-12T12:41:14.172Z,100519.69
2023-03-12T12:43:44.067Z,100515.78
2023-03-12T12:46:20.020Z,100511.31
2023-03-12T12:48:54.052Z,100508.84
2023-03-12T12:51:23.621Z,100508.25
2023-03-12T12:53:56.492Z,100492.00
2023-03-12T12:56:23.956Z,100503.56
2023-03-12T12:58:51.806Z,100512.25
2023-03-12T13:01:20.135Z,100510.84
2023-03-12T13:03:49.916Z,100517.00
2023-03-12T13:06:18.087Z,100507.47
2023-03-12T13:08:46.324Z,100514.13
2023-03-12T13:11:20.412Z,100513.16
2023-03-12T13:13:51.469Z,100513.56
2023-03-12T13:16:35.925Z,100503.53
2023-03-12T13:19:16.313Z,100496.06
2023-03-12T13:21:46.933Z,100510.03
2023-03-12T13:24:31.958Z,100516.38
2023-03-12T13:27:05.329Z,100515.13
2023-03-12T13:29:33.690Z,100512.25
2023-03-12T13:32:05.145Z,100506.28
2023-03-12T13:34:43.309Z,100513.69
2023-03-12T13:37:27.299Z,100520.56
2023-03-12T13:39:55.430Z,100513.16
2023-03-12T13:42:23.162Z,100517.50
2023-03-12T13:44:52.130Z,100524.81
2023-03-12T13:47:23.571Z,100517.91
2023-03-12T13:49:57.119Z,100535.72
2023-03-12T13:52:32.633Z,100530.38
2023-03-12T13:55:08.509Z,100540.47
2023-03-12T13:57:43.787Z,100536.19
2023-03-12T14:00:15.933Z,100530.81
2023-03-12T14:02:47.893Z,100530.22
2023-03-12T14:05:17.294Z,100528.81
2023-03-12T14:07:47.825Z,100535.38
2023-03-12T14:10:27.735Z,100525.53
2023-03-12T14:12:55.609Z,100534.09
2023-03-12T14:15:26.746Z,100536.06
2023-03-12T14:18:00.545Z,100534.94
2023-03-12T14:20:38.944Z,100524.03
2023-03-12T14:23:09.465Z,100521.69
2023-03-12T14:25:39.478Z,100524.00
2023-03-12T14:28:26.085Z,100522.59
2023-03-12T14:31:05.493Z,100537.38
2023-03-12T14:33:44.157Z,100520.66
2023-03-12T14:36:21.016Z,100515.63
2023-03-12T14:38:49.504Z,100517.50
2023-03-12T14:41:21.347Z,100522.69
2023-03-12T14:43:51.905Z,100527.50
2023-03-12T14:46:21.080Z,100516.63
2023-03-12T14:48:50.101Z,100521.31
2023-03-12T14:51:24.218Z,100531.34
2023-03-12T14:53:53.395Z,100519.81
2023-03-12T14:56:35.514Z,100532.81
2023-03-12T14:59:20.679Z,100542.50
2023-03-12T15:01:48.917Z,100536.19
2023-03-12T15:04:20.000Z,100539.41
2023-03-12T15:06:49.572Z,100536.81
2023-03-12T15:09:20.023Z,100527.59
2023-03-12T15:11:58.191Z,100531.09
2023-03-12T15:14:29.019Z,100527.03
2023-03-12T15:16:59.400Z,100523.03
2023-03-12T15:19:32.852Z,100522.91
2023-03-12T15:22:01.028Z,100524.59
2023-03-12T15:24:34.598Z,100524.69
2023-03-12T15:27:19.169Z,100516.00
2023-03-12T15:29:47.405Z,100528.19
2023-03-12T15:32:16.014Z,100529.72
2023-03-12T15:34:44.529Z,100532.19
2023-03-12T15:37:41.146Z,100543.34
2023-03-12T15:40:24.365Z,100544.72
2023-03-12T15:42:54.842Z,100537.88
2023-03-12T15:45:28.509Z,100531.78
2023-03-12T15:47:56.362Z,100529.94
2023-03-12T15:50:30.342Z,100530.53
2023-03-12T15:53:25.771Z,100536.91
2023-03-12T15:55:57.339Z,100531.03
2023-03-12T15:58:32.030Z,100538.00
2023-03-12T16:01:10.621Z,100537.34
2023-03-12T16:03:39.231Z,100540.47
2023-03-12T16:06:15.143Z,100552.88
2023-03-12T16:08:47.591Z,100540.09
2023-03-12T16:11:20.199Z,100538.91
2023-03-12T16:13:49.032Z,100542.41
2023-03-12T16:16:17.266Z,100544.38
2023-03-12T16:18:44.984Z,100560.47
2023-03-12T16:21:13.231Z,100565.34
2023-03-12T16:23:40.886Z,100572.41
2023-03-12T16:26:08.898Z,100571.34
2023-03-12T16:28:36.792Z,100577.00
2023-03-12T16:31:10.618Z,100573.50
2023-03-12T16:33:38.344Z,100586.69
2023-03-12T16:36:16.810Z,100578.97
2023-03-12T16:38:44.490Z,100583.38
2023-03-12T16:41:19.831Z,100587.28
2023-03-12T16:43:50.331Z,100591.75
2023-03-12T16:46:20.398Z,100599.97
2023-03-12T16:48:52.944Z,100600.63
2023-03-12T16:51:21.149Z,100606.69
2023-03-12T16:53:58.532Z,100605.53
2023-03-12T16:56:34.963Z,100596.91
2023-03-12T16:59:07.342Z,100597.47
2023-03-12T17:01:36.058Z,100605.13
2023-03-12T17:04:05.087Z,100606.19
2023-03-12T17:06:33.189Z,100612.53
2023-03-12T17:09:01.584Z,100617.16
2023-03-12T17:11:33.233Z,100612.94
2023-03-12T17:14:02.389Z,100626.19
2023-03-12T17:16:30.250Z,100632.78
2023-03-12T17:18:58.106Z,100629.19
2023-03-12T17:21:25.963Z,100641.25
2023-03-12T17:23:53.609Z,100641.41
2023-03-12T17:26:21.562Z,100638.09
2023-03-12T17:28:49.087Z,100633.72
2023-03-12T17:31:17.352Z,100640.47
2023-03-12T17:33:45.327Z,100641.91
2023-03-12T17:36:13.299Z,100656.81
2023-03-12T17:38:41.075Z,100669.88
2023-03-12T17:41:25.133Z,100674.34
2023-03-12T17:43:55.019Z,100679.34
2023-03-12T17:46:23.057Z,100695.78
2023-03-12T17:48:50.641Z,100709.19
2023-03-12T17:51:18.676Z,100719.03
2023-03-12T17:53:46.441Z,100717.72
2023-03-12T17:56:18.040Z,100723.03
2023-03-12T17:58:46.040Z,100724.50
2023-03-12T18:01:14.313Z,100729.81
2023-03-12T18:03:44.126Z,100723.38
2023-03-12T18:06:12.320Z,100729.81
2023-03-12T18:08:40.037Z,100740.41
2023-03-12T18:11:08.150Z,100738.78
2023-03-12T18:13:35.710Z,100736.78
2023-03-12T18:16:03.711Z,100732.53
2023-03-12T18:18:31.401Z,100729.69
2023-03-12T18:20:59.229Z,100740.63
2023-03-12T18:23:27.977Z,100741.91
2023-03-12T18:25:55.947Z,100749.34
2023-03-12T18:28:24.245Z,100752.09
2023-03-12T18:30:53.638Z,100766.25
2023-03-12T18:33:21.211Z,100761.03
2023-03-12T18:35:49.726Z,100761.91
2023-03-12T18:38:17.352Z,100768.63
2023-03-12T18:40:45.964Z,100783.63
2023-03-12T18:43:14.336Z,100772.75
2023-03-12T18:45:43.958Z,100777.34
2023-03-12T18:48:11.574Z,100788.50
2023-03-12T18:50:39.613Z,100786.84
2023-03-12T18:53:07.136Z,100783.00
2023-03-12T18:55:35.264Z,100787.25
2023-03-12T18:58:02.929Z,100788.50
2023-03-12T19:00:31.863Z,100791.19
2023-03-12T19:02:59.471Z,100794.41
2023-03-12T19:05:27.557Z,100802.78
2023-03-12T19:07:55.027Z,100812.19
2023-03-12T19:10:22.893Z,100811.13
2023-03-12T19:12:53.388Z,100813.91
2023-03-12T19:15:22.577Z,100816.06
2023-03-12T19:17:50.805Z,100821.56
2023-03-12T19:20:18.788Z,100818.47
2023-03-12T19:22:46.278Z,100810.97
2023-03-12T19:25:14.454Z,100815.09
2023-03-12T19:27:42.035Z,100814.44
2023-03-12T19:30:10.302Z,100818.47
2023-03-12T19:32:43.801Z,100824.84
2023-03-12T19:35:13.865Z,100822.53
2023-03-12T19:37:41.846Z,100830.44
2023-03-12T19:40:10.949Z,100835.75
2023-03-12T19:42:38.696Z,100843.25
2023-03-12T19:45:07.106Z,100846.25
2023-03-12T19:47:34.661Z,100855.34
2023-03-12T19:50:03.189Z,100874.53
2023-03-12T19:52:30.803Z,100881.94
2023-03-12T19:55:04.629Z,100889.75
2023-03-12T19:57:33.519Z,100892.28
2023-03-12T20:00:01.442Z,100887.28
2023-03-12T20:02:32.070Z,100889.31
2023-03-12T20:04:59.940Z,100899.13
2023-03-12T20:07:27.472Z,100902.81
2023-03-12T20:09:55.322Z,100902.81
2023-03-12T20:12:22.934Z,100902.38
2023-03-12T20:14:51.254Z,100903.91
2023-03-12T20:17:19.031Z,100900.09
2023-03-12T20:19:46.914Z,100903.13
2023-03-12T20:22:15.580Z,100901.78
2023-03-12T20:24:44.819Z,100901.41
2023-03-12T20:27:12.568Z,100889.19
2023-03-12T20:29:41.027Z,100893.06
2023-03-12T20:32:08.593Z,100895.47
2023-03-12T20:34:37.992Z,100891.19
2023-03-12T20:37:07.337Z,100887.16
2023-03-12T20:39:36.979Z,100891.97
2023-03-12T20:42:05.146Z,100896.63
2023-03-12T20:44:33.388Z,100893.34
2023-03-12T20:47:01.502Z,100892.75
2023-03-12T20:49:29.559Z,100886.25
2023-03-12T20:51:57.175Z,100886.66
2023-03-12T20:54:25.122Z,100893.81
2023-03-12T20:56:53.656Z,100889.88
2023-03-12T20:59:23.702Z,100891.84
2023-03-12T21:01:52.992Z,100892.94
2023-03-12T21:04:22.016Z,100900.16
2023-03-12T21:06:53.056Z,100895.13
2023-03-12T21:09:22.755Z,100898.22
2023-03-12T21:11:50.734Z,100905.47
2023-03-12T21:14:22.273Z,100914.53
2023-03-12T21:16:49.822Z,100920.63
2023-03-12T21:19:17.810Z,100927.75
2023-03-12T21:21:45.678Z,100938.38
2023-03-12T21:24:14.149Z,100939.47
2023-03-12T21:26:41.775Z,100937.97
2023-03-12T21:29:09.691Z,100934.31
2023-03-12T21:31:37.208Z,100932.22
2023-03-12T21:34:05.251Z,100939.09
2023-03-12T21:36:33.403Z,100945.63
2023-03-12T21:39:02.135Z,100946.81
2023-03-12T21:41:29.773Z,100939.09
2023-03-12T21:44:00.528Z,100948.38
2023-03-12T21:46:30.196Z,100952.38
2023-03-12T21:48:59.038Z,100948.28
2023-03-12T21:51:26.854Z,100956.38
2023-03-12T21:53:58.305Z,100948.75
2023-03-12T21:56:30.506Z,100939.63
2023-03-12T21:58:58.649Z,100938.78
2023-03-12T22:01:26.276Z,100935.88
2023-03-12T22:03:54.324Z,100945.44
2023-03-12T22:06:22.402Z,100943.78
2023-03-12T22:08:50.291Z,100945.09
2023-03-12T22:11:18.280Z,100940.97
2023-03-12T22:13:46.173Z,100939.53
2023-03-12T22:16:14.487Z,100933.94
2023-03-12T22:18:44.187Z,100943.97
2023-03-12T22:21:16.301Z,100948.34
2023-03-12T22:23:44.237Z,100952.91
2023-03-12T22:26:12.662Z,100948.06
2023-03-12T22:28:40.624Z,100944.88
2023-03-12T22:31:09.037Z,100951.59
2023-03-12T22:33:37.480Z,100957.34
2023-03-12T22:36:09.636Z,100951.75
2023-03-12T22:38:38.089Z,100946.16
2023-03-12T22:41:12.912Z,100940.16
2023-03-12T22:43:40.800Z,100940.97
2023-03-12T22:46:08.653Z,100948.00
2023-03-12T22:48:37.094Z,100946.94
2023-03-12T22:51:05.279Z,100948.56
2023-03-12T22:53:33.786Z,100957.06
2023-03-12T22:56:08.592Z,100957.41
2023-03-12T22:58:36.729Z,100957.22
2023-03-12T23:01:06.191Z,100957.38
2023-03-12T23:03:34.999Z,100957.41
2023-03-12T23:06:03.227Z,100949.81
2023-03-12T23:08:31.118Z,100942.75
2023-03-12T23:11:00.857Z,100944.31
2023-03-12T23:13:30.447Z,100942.44
2023-03-12T23:16:02.917Z,100946.84
2023-03-12T23:18:30.859Z,100953.63
2023-03-12T23:21:00.033Z,100958.34
2023-03-12T23:23:28.418Z,100949.53
2023-03-12T23:25:57.176Z,100949.81
2023-03-12T23:28:26.485Z,100957.22
2023-03-12T23:30:53.997Z,100963.84
2023-03-12T23:33:22.033Z,100956.75
2023-03-12T23:36:03.720Z,100959.72
2023-03-12T23:38:32.008Z,100967.25
2023-03-12T23:41:01.217Z,100963.75
2023-03-12T23:43:29.198Z,100961.97
2023-03-12T23:45:58.659Z,100959.06
2023-03-12T23:48:27.967Z,100958.78
2023-03-12T23:51:03.057Z,100953.84
2023-03-12T23:53:31.327Z,100946.31
2023-03-12T23:55:59.766Z,100947.91
2023-03-12T23:58:28.009Z,100944.75
